sensor_id;sensor_type;location;lat;lon;timestamp;P1;durP1;ratioP1;P2;durP2;ratioP2
3000;SDS011;1510;51.072;6.678;2024-03-02T00:00:56;5.40;;;2.33;;
3000;SDS011;1510;51.072;6.678;2024-03-02T00:03:23;5.37;;;2.77;;
3000;SDS011;1510;51.072;6.678;2024-03-02T00:05:50;6.33;;;3.47;;
3000;SDS011;1510;51.072;6.678;2024-03-02T00:08:22;4.70;;;2.53;;
3000;SDS011;1510;51.072;6.678;2024-03-02T00:10:50;6.20;;;2.80;;
3000;SDS011;1510;51.072;6.678;2024-03-02T00:13:20;5.37;;;3.10;;
3000;SDS011;1510;51.072;6.678;2024-03-02T00:15:50;5.73;;;2.80;;
3000;SDS011;1510;51.072;6.678;2024-03-02T00:18:19;5.63;;;3.07;;
3000;SDS011;1510;51.072;6.678;2024-03-02T00:20:47;9.23;;;3.77;;
3000;SDS011;1510;51.072;6.678;2024-03-02T00:23:14;5.70;;;2.97;;
3000;SDS011;1510;51.072;6.678;2024-03-02T00:25:44;6.33;;;3.83;;
3000;SDS011;1510;51.072;6.678;2024-03-02T00:28:14;10.77;;;4.17;;
3000;SDS011;1510;51.072;6.678;2024-03-02T00:30:49;6.40;;;3.50;;
3000;SDS011;1510;51.072;6.678;2024-03-02T00:33:20;8.00;;;3.73;;
3000;SDS011;1510;51.072;6.678;2024-03-02T00:35:48;6.50;;;3.53;;
3000;SDS011;1510;51.072;6.678;2024-03-02T00:38:15;5.93;;;3.70;;
3000;SDS011;1510;51.072;6.678;2024-03-02T00:40:42;6.57;;;3.63;;
3000;SDS011;1510;51.072;6.678;2024-03-02T00:43:18;7.90;;;3.23;;
3000;SDS011;1510;51.072;6.678;2024-03-02T00:46:07;5.80;;;2.80;;
3000;SDS011;1510;51.072;6.678;2024-03-02T00:48:34;8.20;;;4.60;;
3000;SDS011;1510;51.072;6.678;2024-03-02T00:51:02;5.40;;;3.10;;
3000;SDS011;1510;51.072;6.678;2024-03-02T00:53:30;7.07;;;3.13;;
3000;SDS011;1510;51.072;6.678;2024-03-02T00:56:00;7.00;;;3.13;;
3000;SDS011;1510;51.072;6.678;2024-03-02T00:58:27;6.53;;;3.53;;
3000;SDS011;1510;51.072;6.678;2024-03-02T01:00:54;7.43;;;4.73;;
3000;SDS011;1510;51.072;6.678;2024-03-02T01:03:21;6.93;;;3.10;;
3000;SDS011;1510;51.072;6.678;2024-03-02T01:05:48;6.77;;;3.80;;
3000;SDS011;1510;51.072;6.678;2024-03-02T01:08:14;6.80;;;3.50;;
3000;SDS011;1510;51.072;6.678;2024-03-02T01:10:41;8.83;;;3.93;;
3000;SDS011;1510;51.072;6.678;2024-03-02T01:13:09;5.73;;;3.83;;
3000;SDS011;1510;51.072;6.678;2024-03-02T01:15:36;5.37;;;3.43;;
3000;SDS011;1510;51.072;6.678;2024-03-02T01:18:03;7.50;;;4.30;;
3000;SDS011;1510;51.072;6.678;2024-03-02T01:20:30;5.00;;;3.50;;
3000;SDS011;1510;51.072;6.678;2024-03-02T01:22:57;6.70;;;3.97;;
3000;SDS011;1510;51.072;6.678;2024-03-02T01:25:24;6.20;;;4.20;;
3000;SDS011;1510;51.072;6.678;2024-03-02T01:27:51;6.17;;;3.93;;
3000;SDS011;1510;51.072;6.678;2024-03-02T01:30:19;5.73;;;3.90;;
3000;SDS011;1510;51.072;6.678;2024-03-02T01:32:46;5.70;;;3.60;;
3000;SDS011;1510;51.072;6.678;2024-03-02T01:35:13;5.73;;;3.70;;
3000;SDS011;1510;51.072;6.678;2024-03-02T01:37:41;5.93;;;3.20;;
3000;SDS011;1510;51.072;6.678;2024-03-02T01:40:08;6.30;;;3.47;;
3000;SDS011;1510;51.072;6.678;2024-03-02T01:42:36;5.87;;;3.53;;
3000;SDS011;1510;51.072;6.678;2024-03-02T01:45:04;6.03;;;3.70;;
3000;SDS011;1510;51.072;6.678;2024-03-02T01:47:32;6.60;;;4.00;;
3000;SDS011;1510;51.072;6.678;2024-03-02T01:49:59;6.00;;;3.50;;
3000;SDS011;1510;51.072;6.678;2024-03-02T01:52:27;7.10;;;3.70;;
3000;SDS011;1510;51.072;6.678;2024-03-02T01:54:54;7.47;;;4.20;;
3000;SDS011;1510;51.072;6.678;2024-03-02T01:57:22;6.30;;;3.80;;
3000;SDS011;1510;51.072;6.678;2024-03-02T01:59:48;6.40;;;3.60;;
3000;SDS011;1510;51.072;6.678;2024-03-02T02:02:16;6.80;;;3.43;;
3000;SDS011;1510;51.072;6.678;2024-03-02T02:04:44;6.40;;;3.53;;
3000;SDS011;1510;51.072;6.678;2024-03-02T02:07:11;5.60;;;3.43;;
3000;SDS011;1510;51.072;6.678;2024-03-02T02:09:39;5.30;;;3.13;;
3000;SDS011;1510;51.072;6.678;2024-03-02T02:12:07;6.30;;;3.37;;
3000;SDS011;1510;51.072;6.678;2024-03-02T02:14:34;6.20;;;3.77;;
3000;SDS011;1510;51.072;6.678;2024-03-02T02:17:01;6.70;;;3.37;;
3000;SDS011;1510;51.072;6.678;2024-03-02T02:19:27;5.80;;;3.80;;
3000;SDS011;1510;51.072;6.678;2024-03-02T02:21:55;5.83;;;3.60;;
3000;SDS011;1510;51.072;6.678;2024-03-02T02:24:22;7.00;;;4.10;;
3000;SDS011;1510;51.072;6.678;2024-03-02T02:26:49;6.83;;;4.07;;
3000;SDS011;1510;51.072;6.678;2024-03-02T02:29:16;6.97;;;3.67;;
3000;SDS011;1510;51.072;6.678;2024-03-02T02:31:42;6.00;;;3.40;;
3000;SDS011;1510;51.072;6.678;2024-03-02T02:34:09;5.43;;;3.20;;
3000;SDS011;1510;51.072;6.678;2024-03-02T02:36:36;6.43;;;3.43;;
3000;SDS011;1510;51.072;6.678;2024-03-02T02:39:06;6.20;;;3.10;;
3000;SDS011;1510;51.072;6.678;2024-03-02T02:41:37;5.80;;;3.00;;
3000;SDS011;1510;51.072;6.678;2024-03-02T02:44:04;6.30;;;3.10;;
3000;SDS011;1510;51.072;6.678;2024-03-02T02:46:30;5.20;;;3.13;;
3000;SDS011;1510;51.072;6.678;2024-03-02T02:48:57;5.83;;;2.73;;
3000;SDS011;1510;51.072;6.678;2024-03-02T02:51:24;5.67;;;3.00;;
3000;SDS011;1510;51.072;6.678;2024-03-02T02:53:51;5.20;;;3.20;;
3000;SDS011;1510;51.072;6.678;2024-03-02T02:56:19;7.13;;;3.17;;
3000;SDS011;1510;51.072;6.678;2024-03-02T02:58:46;6.53;;;3.00;;
3000;SDS011;1510;51.072;6.678;2024-03-02T03:01:13;4.90;;;2.80;;
3000;SDS011;1510;51.072;6.678;2024-03-02T03:03:42;6.00;;;3.70;;
3000;SDS011;1510;51.072;6.678;2024-03-02T03:06:11;5.93;;;3.93;;
3000;SDS011;1510;51.072;6.678;2024-03-02T03:08:38;5.80;;;3.60;;
3000;SDS011;1510;51.072;6.678;2024-03-02T03:11:05;6.53;;;4.33;;
3000;SDS011;1510;51.072;6.678;2024-03-02T03:13:33;7.30;;;4.97;;
3000;SDS011;1510;51.072;6.678;2024-03-02T03:16:00;6.60;;;4.97;;
3000;SDS011;1510;51.072;6.678;2024-03-02T03:18:28;5.90;;;4.57;;
3000;SDS011;1510;51.072;6.678;2024-03-02T03:20:55;6.80;;;4.30;;
3000;SDS011;1510;51.072;6.678;2024-03-02T03:23:21;6.27;;;4.80;;
3000;SDS011;1510;51.072;6.678;2024-03-02T03:25:48;5.80;;;4.30;;
3000;SDS011;1510;51.072;6.678;2024-03-02T03:28:15;6.83;;;4.03;;
3000;SDS011;1510;51.072;6.678;2024-03-02T03:30:44;5.70;;;4.70;;
3000;SDS011;1510;51.072;6.678;2024-03-02T03:33:11;5.10;;;3.87;;
3000;SDS011;1510;51.072;6.678;2024-03-02T03:35:37;5.73;;;5.13;;
3000;SDS011;1510;51.072;6.678;2024-03-02T03:38:04;7.33;;;5.53;;
3000;SDS011;1510;51.072;6.678;2024-03-02T03:40:31;5.93;;;5.30;;
3000;SDS011;1510;51.072;6.678;2024-03-02T03:42:58;6.20;;;5.50;;
3000;SDS011;1510;51.072;6.678;2024-03-02T03:45:25;6.13;;;4.87;;
3000;SDS011;1510;51.072;6.678;2024-03-02T03:47:53;6.60;;;4.60;;
3000;SDS011;1510;51.072;6.678;2024-03-02T03:50:20;5.97;;;4.00;;
3000;SDS011;1510;51.072;6.678;2024-03-02T03:52:47;5.87;;;2.90;;
3000;SDS011;1510;51.072;6.678;2024-03-02T03:55:14;5.90;;;2.47;;
3000;SDS011;1510;51.072;6.678;2024-03-02T03:57:40;5.80;;;2.17;;
3000;SDS011;1510;51.072;6.678;2024-03-02T04:00:08;5.17;;;2.23;;
3000;SDS011;1510;51.072;6.678;2024-03-02T04:02:36;4.50;;;1.70;;
3000;SDS011;1510;51.072;6.678;2024-03-02T04:05:05;5.53;;;1.80;;
3000;SDS011;1510;51.072;6.678;2024-03-02T04:07:34;7.00;;;1.73;;
3000;SDS011;1510;51.072;6.678;2024-03-02T04:10:05;5.00;;;1.70;;
3000;SDS011;1510;51.072;6.678;2024-03-02T04:12:34;5.27;;;2.13;;
3000;SDS011;1510;51.072;6.678;2024-03-02T04:15:02;5.60;;;1.60;;
3000;SDS011;1510;51.072;6.678;2024-03-02T04:17:31;4.63;;;1.77;;
3000;SDS011;1510;51.072;6.678;2024-03-02T04:19:58;5.00;;;1.93;;
3000;SDS011;1510;51.072;6.678;2024-03-02T04:22:26;4.97;;;2.00;;
3000;SDS011;1510;51.072;6.678;2024-03-02T04:24:53;8.47;;;2.07;;
3000;SDS011;1510;51.072;6.678;2024-03-02T04:27:20;6.93;;;2.43;;
3000;SDS011;1510;51.072;6.678;2024-03-02T04:29:47;4.50;;;1.60;;
3000;SDS011;1510;51.072;6.678;2024-03-02T04:32:13;8.77;;;3.93;;
3000;SDS011;1510;51.072;6.678;2024-03-02T04:34:40;9.40;;;3.87;;
3000;SDS011;1510;51.072;6.678;2024-03-02T04:37:07;7.60;;;3.13;;
3000;SDS011;1510;51.072;6.678;2024-03-02T04:39:36;5.63;;;2.30;;
3000;SDS011;1510;51.072;6.678;2024-03-02T04:42:03;5.17;;;1.80;;
3000;SDS011;1510;51.072;6.678;2024-03-02T04:44:30;8.83;;;2.53;;
3000;SDS011;1510;51.072;6.678;2024-03-02T04:46:56;11.47;;;2.63;;
3000;SDS011;1510;51.072;6.678;2024-03-02T04:49:23;11.70;;;2.70;;
3000;SDS011;1510;51.072;6.678;2024-03-02T04:51:50;5.40;;;2.80;;
3000;SDS011;1510;51.072;6.678;2024-03-02T04:54:17;6.73;;;3.60;;
3000;SDS011;1510;51.072;6.678;2024-03-02T04:56:45;6.30;;;4.43;;
3000;SDS011;1510;51.072;6.678;2024-03-02T04:59:15;6.73;;;6.13;;
3000;SDS011;1510;51.072;6.678;2024-03-02T05:01:42;8.60;;;7.80;;
3000;SDS011;1510;51.072;6.678;2024-03-02T05:04:09;12.37;;;11.27;;
3000;SDS011;1510;51.072;6.678;2024-03-02T05:06:37;10.37;;;9.47;;
3000;SDS011;1510;51.072;6.678;2024-03-02T05:09:05;10.40;;;9.50;;
3000;SDS011;1510;51.072;6.678;2024-03-02T05:11:32;10.80;;;9.87;;
3000;SDS011;1510;51.072;6.678;2024-03-02T05:14:22;16.60;;;15.60;;
3000;SDS011;1510;51.072;6.678;2024-03-02T05:16:49;24.60;;;23.20;;
3000;SDS011;1510;51.072;6.678;2024-03-02T05:19:16;22.20;;;21.00;;
3000;SDS011;1510;51.072;6.678;2024-03-02T05:21:43;37.60;;;35.70;;
3000;SDS011;1510;51.072;6.678;2024-03-02T05:24:10;35.63;;;33.90;;
3000;SDS011;1510;51.072;6.678;2024-03-02T05:26:37;42.63;;;40.67;;
3000;SDS011;1510;51.072;6.678;2024-03-02T05:29:03;37.23;;;35.57;;
3000;SDS011;1510;51.072;6.678;2024-03-02T05:31:32;28.43;;;27.03;;
3000;SDS011;1510;51.072;6.678;2024-03-02T05:33:58;32.17;;;30.03;;
3000;SDS011;1510;51.072;6.678;2024-03-02T05:36:25;28.50;;;26.60;;
3000;SDS011;1510;51.072;6.678;2024-03-02T05:38:52;29.40;;;27.90;;
3000;SDS011;1510;51.072;6.678;2024-03-02T05:41:19;43.83;;;41.33;;
3000;SDS011;1510;51.072;6.678;2024-03-02T05:43:46;32.90;;;31.13;;
3000;SDS011;1510;51.072;6.678;2024-03-02T05:46:12;30.63;;;28.63;;
3000;SDS011;1510;51.072;6.678;2024-03-02T05:48:40;33.17;;;31.67;;
3000;SDS011;1510;51.072;6.678;2024-03-02T05:51:07;29.07;;;27.57;;
3000;SDS011;1510;51.072;6.678;2024-03-02T05:53:34;29.23;;;27.83;;
3000;SDS011;1510;51.072;6.678;2024-03-02T05:56:03;26.67;;;25.27;;
3000;SDS011;1510;51.072;6.678;2024-03-02T05:58:30;29.43;;;28.07;;
3000;SDS011;1510;51.072;6.678;2024-03-02T06:01:08;30.70;;;29.20;;
3000;SDS011;1510;51.072;6.678;2024-03-02T06:03:34;35.43;;;33.80;;
3000;SDS011;1510;51.072;6.678;2024-03-02T06:06:03;29.37;;;27.87;;
3000;SDS011;1510;51.072;6.678;2024-03-02T06:08:30;27.17;;;25.87;;
3000;SDS011;1510;51.072;6.678;2024-03-02T06:10:57;27.50;;;26.20;;
3000;SDS011;1510;51.072;6.678;2024-03-02T06:13:24;22.53;;;21.00;;
3000;SDS011;1510;51.072;6.678;2024-03-02T06:15:51;18.97;;;17.57;;
3000;SDS011;1510;51.072;6.678;2024-03-02T06:18:18;12.90;;;12.00;;
3000;SDS011;1510;51.072;6.678;2024-03-02T06:20:45;11.00;;;10.10;;
3000;SDS011;1510;51.072;6.678;2024-03-02T06:23:13;8.20;;;7.40;;
3000;SDS011;1510;51.072;6.678;2024-03-02T06:25:40;6.73;;;6.13;;
3000;SDS011;1510;51.072;6.678;2024-03-02T06:28:06;6.70;;;4.83;;
3000;SDS011;1510;51.072;6.678;2024-03-02T06:30:33;8.87;;;4.50;;
3000;SDS011;1510;51.072;6.678;2024-03-02T06:33:00;6.40;;;4.10;;
3000;SDS011;1510;51.072;6.678;2024-03-02T06:35:28;6.03;;;3.90;;
3000;SDS011;1510;51.072;6.678;2024-03-02T06:37:55;8.33;;;5.00;;
3000;SDS011;1510;51.072;6.678;2024-03-02T06:40:23;5.00;;;3.97;;
3000;SDS011;1510;51.072;6.678;2024-03-02T06:42:50;7.90;;;3.80;;
3000;SDS011;1510;51.072;6.678;2024-03-02T06:45:17;5.37;;;4.63;;
3000;SDS011;1510;51.072;6.678;2024-03-02T06:47:43;6.00;;;4.67;;
3000;SDS011;1510;51.072;6.678;2024-03-02T06:50:10;6.00;;;5.30;;
3000;SDS011;1510;51.072;6.678;2024-03-02T06:52:38;9.40;;;6.30;;
3000;SDS011;1510;51.072;6.678;2024-03-02T06:55:05;6.60;;;5.87;;
3000;SDS011;1510;51.072;6.678;2024-03-02T06:57:34;7.77;;;7.00;;
3000;SDS011;1510;51.072;6.678;2024-03-02T07:00:00;10.03;;;6.10;;
3000;SDS011;1510;51.072;6.678;2024-03-02T07:02:30;7.70;;;5.03;;
3000;SDS011;1510;51.072;6.678;2024-03-02T07:04:57;6.43;;;5.13;;
3000;SDS011;1510;51.072;6.678;2024-03-02T07:07:24;6.00;;;4.27;;
3000;SDS011;1510;51.072;6.678;2024-03-02T07:09:51;5.70;;;3.43;;
3000;SDS011;1510;51.072;6.678;2024-03-02T07:12:17;7.57;;;3.37;;
3000;SDS011;1510;51.072;6.678;2024-03-02T07:14:46;6.93;;;4.63;;
3000;SDS011;1510;51.072;6.678;2024-03-02T07:17:43;6.13;;;4.13;;
3000;SDS011;1510;51.072;6.678;2024-03-02T07:20:10;5.10;;;3.13;;
3000;SDS011;1510;51.072;6.678;2024-03-02T07:22:38;5.30;;;3.20;;
3000;SDS011;1510;51.072;6.678;2024-03-02T07:25:05;7.53;;;3.60;;
3000;SDS011;1510;51.072;6.678;2024-03-02T07:27:33;6.37;;;2.97;;
3000;SDS011;1510;51.072;6.678;2024-03-02T07:30:01;7.90;;;3.27;;
3000;SDS011;1510;51.072;6.678;2024-03-02T07:32:28;5.80;;;3.60;;
3000;SDS011;1510;51.072;6.678;2024-03-02T07:34:55;7.40;;;2.70;;
3000;SDS011;1510;51.072;6.678;2024-03-02T07:37:22;5.10;;;2.70;;
3000;SDS011;1510;51.072;6.678;2024-03-02T07:39:49;5.90;;;2.87;;
3000;SDS011;1510;51.072;6.678;2024-03-02T07:42:16;5.37;;;3.17;;
3000;SDS011;1510;51.072;6.678;2024-03-02T07:44:44;5.30;;;2.57;;
3000;SDS011;1510;51.072;6.678;2024-03-02T07:47:12;5.40;;;3.17;;
3000;SDS011;1510;51.072;6.678;2024-03-02T07:49:39;6.20;;;3.03;;
3000;SDS011;1510;51.072;6.678;2024-03-02T07:52:06;5.33;;;2.30;;
3000;SDS011;1510;51.072;6.678;2024-03-02T07:54:33;5.70;;;2.63;;
3000;SDS011;1510;51.072;6.678;2024-03-02T07:57:00;6.27;;;2.73;;
3000;SDS011;1510;51.072;6.678;2024-03-02T07:59:27;7.07;;;3.13;;
3000;SDS011;1510;51.072;6.678;2024-03-02T08:01:54;7.30;;;2.40;;
3000;SDS011;1510;51.072;6.678;2024-03-02T08:04:22;6.13;;;2.87;;
3000;SDS011;1510;51.072;6.678;2024-03-02T08:06:49;5.50;;;2.13;;
3000;SDS011;1510;51.072;6.678;2024-03-02T08:09:16;4.63;;;1.97;;
3000;SDS011;1510;51.072;6.678;2024-03-02T08:11:43;4.50;;;2.10;;
3000;SDS011;1510;51.072;6.678;2024-03-02T08:14:10;4.30;;;1.90;;
3000;SDS011;1510;51.072;6.678;2024-03-02T08:16:37;5.37;;;1.83;;
3000;SDS011;1510;51.072;6.678;2024-03-02T08:19:04;7.70;;;2.73;;
3000;SDS011;1510;51.072;6.678;2024-03-02T08:21:32;6.80;;;2.80;;
3000;SDS011;1510;51.072;6.678;2024-03-02T08:24:00;6.17;;;3.07;;
3000;SDS011;1510;51.072;6.678;2024-03-02T08:26:27;10.00;;;2.53;;
3000;SDS011;1510;51.072;6.678;2024-03-02T08:28:56;4.80;;;2.03;;
3000;SDS011;1510;51.072;6.678;2024-03-02T08:31:23;5.83;;;2.47;;
3000;SDS011;1510;51.072;6.678;2024-03-02T08:33:50;4.13;;;1.37;;
3000;SDS011;1510;51.072;6.678;2024-03-02T08:36:17;4.60;;;1.67;;
3000;SDS011;1510;51.072;6.678;2024-03-02T08:38:46;4.80;;;1.60;;
3000;SDS011;1510;51.072;6.678;2024-03-02T08:41:14;6.10;;;1.75;;
3000;SDS011;1510;51.072;6.678;2024-03-02T08:43:41;4.73;;;1.50;;
3000;SDS011;1510;51.072;6.678;2024-03-02T08:46:08;6.20;;;1.50;;
3000;SDS011;1510;51.072;6.678;2024-03-02T08:48:35;4.73;;;1.13;;
3000;SDS011;1510;51.072;6.678;2024-03-02T08:51:02;4.33;;;1.37;;
3000;SDS011;1510;51.072;6.678;2024-03-02T08:53:32;8.70;;;1.97;;
3000;SDS011;1510;51.072;6.678;2024-03-02T08:56:00;3.87;;;1.00;;
3000;SDS011;1510;51.072;6.678;2024-03-02T08:58:30;5.10;;;1.30;;
3000;SDS011;1510;51.072;6.678;2024-03-02T09:00:57;5.40;;;1.10;;
3000;SDS011;1510;51.072;6.678;2024-03-02T09:03:24;4.33;;;1.47;;
3000;SDS011;1510;51.072;6.678;2024-03-02T09:05:51;5.17;;;1.30;;
3000;SDS011;1510;51.072;6.678;2024-03-02T09:08:17;3.97;;;1.27;;
3000;SDS011;1510;51.072;6.678;2024-03-02T09:10:44;6.70;;;1.67;;
3000;SDS011;1510;51.072;6.678;2024-03-02T09:13:12;4.90;;;1.70;;
3000;SDS011;1510;51.072;6.678;2024-03-02T09:15:39;6.13;;;1.20;;
3000;SDS011;1510;51.072;6.678;2024-03-02T09:18:06;4.63;;;1.60;;
3000;SDS011;1510;51.072;6.678;2024-03-02T09:20:33;5.23;;;1.47;;
3000;SDS011;1510;51.072;6.678;2024-03-02T09:23:00;5.10;;;1.20;;
3000;SDS011;1510;51.072;6.678;2024-03-02T09:25:27;5.20;;;1.23;;
3000;SDS011;1510;51.072;6.678;2024-03-02T09:27:53;4.17;;;1.13;;
3000;SDS011;1510;51.072;6.678;2024-03-02T09:30:21;5.30;;;1.50;;
3000;SDS011;1510;51.072;6.678;2024-03-02T09:32:48;4.30;;;1.30;;
3000;SDS011;1510;51.072;6.678;2024-03-02T09:35:15;4.83;;;1.30;;
3000;SDS011;1510;51.072;6.678;2024-03-02T09:37:43;6.10;;;1.50;;
3000;SDS011;1510;51.072;6.678;2024-03-02T09:40:10;5.17;;;1.40;;
3000;SDS011;1510;51.072;6.678;2024-03-02T09:42:37;4.17;;;1.00;;
3000;SDS011;1510;51.072;6.678;2024-03-02T09:45:05;5.43;;;1.27;;
3000;SDS011;1510;51.072;6.678;2024-03-02T09:47:34;7.20;;;1.43;;
3000;SDS011;1510;51.072;6.678;2024-03-02T09:50:01;6.83;;;2.13;;
3000;SDS011;1510;51.072;6.678;2024-03-02T09:52:28;5.27;;;0.93;;
3000;SDS011;1510;51.072;6.678;2024-03-02T09:54:57;4.50;;;1.30;;
3000;SDS011;1510;51.072;6.678;2024-03-02T09:57:24;7.60;;;1.27;;
3000;SDS011;1510;51.072;6.678;2024-03-02T09:59:50;6.00;;;1.20;;
3000;SDS011;1510;51.072;6.678;2024-03-02T10:02:17;8.13;;;1.60;;
3000;SDS011;1510;51.072;6.678;2024-03-02T10:04:45;6.50;;;1.20;;
3000;SDS011;1510;51.072;6.678;2024-03-02T10:07:16;6.00;;;1.50;;
3000;SDS011;1510;51.072;6.678;2024-03-02T10:09:44;5.03;;;1.33;;
3000;SDS011;1510;51.072;6.678;2024-03-02T10:12:11;4.30;;;0.90;;
3000;SDS011;1510;51.072;6.678;2024-03-02T10:14:40;7.10;;;0.97;;
3000;SDS011;1510;51.072;6.678;2024-03-02T10:17:08;4.63;;;1.27;;
3000;SDS011;1510;51.072;6.678;2024-03-02T10:19:36;4.30;;;1.07;;
3000;SDS011;1510;51.072;6.678;2024-03-02T10:22:05;6.50;;;1.30;;
3000;SDS011;1510;51.072;6.678;2024-03-02T10:24:36;4.30;;;1.00;;
3000;SDS011;1510;51.072;6.678;2024-03-02T10:27:08;4.90;;;0.90;;
3000;SDS011;1510;51.072;6.678;2024-03-02T10:29:39;4.50;;;1.10;;
3000;SDS011;1510;51.072;6.678;2024-03-02T10:32:08;15.60;;;1.80;;
3000;SDS011;1510;51.072;6.678;2024-03-02T10:34:36;6.83;;;0.97;;
3000;SDS011;1510;51.072;6.678;2024-03-02T10:37:04;6.80;;;1.37;;
3000;SDS011;1510;51.072;6.678;2024-03-02T10:39:32;4.20;;;1.00;;
3000;SDS011;1510;51.072;6.678;2024-03-02T10:42:01;5.27;;;1.00;;
3000;SDS011;1510;51.072;6.678;2024-03-02T10:44:29;6.63;;;1.13;;
3000;SDS011;1510;51.072;6.678;2024-03-02T10:46:56;6.33;;;0.93;;
3000;SDS011;1510;51.072;6.678;2024-03-02T10:49:27;4.87;;;1.00;;
3000;SDS011;1510;51.072;6.678;2024-03-02T10:51:55;5.60;;;1.13;;
3000;SDS011;1510;51.072;6.678;2024-03-02T10:54:25;5.03;;;1.00;;
3000;SDS011;1510;51.072;6.678;2024-03-02T10:56:54;6.83;;;1.33;;
3000;SDS011;1510;51.072;6.678;2024-03-02T10:59:26;4.80;;;1.03;;
3000;SDS011;1510;51.072;6.678;2024-03-02T11:01:56;7.10;;;1.40;;
3000;SDS011;1510;51.072;6.678;2024-03-02T11:04:25;6.03;;;1.23;;
3000;SDS011;1510;51.072;6.678;2024-03-02T11:06:54;5.17;;;1.30;;
3000;SDS011;1510;51.072;6.678;2024-03-02T11:09:27;4.80;;;1.00;;
3000;SDS011;1510;51.072;6.678;2024-03-02T11:11:56;4.77;;;1.40;;
3000;SDS011;1510;51.072;6.678;2024-03-02T11:14:29;4.77;;;1.20;;
3000;SDS011;1510;51.072;6.678;2024-03-02T11:16:58;5.13;;;1.57;;
3000;SDS011;1510;51.072;6.678;2024-03-02T11:19:26;7.47;;;1.67;;
3000;SDS011;1510;51.072;6.678;2024-03-02T11:21:53;8.50;;;2.13;;
3000;SDS011;1510;51.072;6.678;2024-03-02T11:24:31;10.87;;;2.70;;
3000;SDS011;1510;51.072;6.678;2024-03-02T11:26:58;6.40;;;1.43;;
3000;SDS011;1510;51.072;6.678;2024-03-02T11:32:14;9.00;;;1.27;;
3000;SDS011;1510;51.072;6.678;2024-03-02T11:34:42;5.17;;;1.13;;
3000;SDS011;1510;51.072;6.678;2024-03-02T11:37:11;6.30;;;1.20;;
3000;SDS011;1510;51.072;6.678;2024-03-02T11:39:40;6.43;;;1.60;;
3000;SDS011;1510;51.072;6.678;2024-03-02T11:42:08;7.47;;;2.13;;
3000;SDS011;1510;51.072;6.678;2024-03-02T11:44:35;4.33;;;1.07;;
3000;SDS011;1510;51.072;6.678;2024-03-02T11:47:05;5.23;;;1.10;;
3000;SDS011;1510;51.072;6.678;2024-03-02T11:49:36;4.87;;;1.43;;
3000;SDS011;1510;51.072;6.678;2024-03-02T11:52:05;7.70;;;1.83;;
3000;SDS011;1510;51.072;6.678;2024-03-02T11:54:33;4.50;;;1.13;;
3000;SDS011;1510;51.072;6.678;2024-03-02T11:57:02;5.20;;;1.20;;
3000;SDS011;1510;51.072;6.678;2024-03-02T11:59:30;5.67;;;1.23;;
3000;SDS011;1510;51.072;6.678;2024-03-02T12:01:57;4.90;;;1.33;;
3000;SDS011;1510;51.072;6.678;2024-03-02T12:04:24;4.70;;;1.27;;
3000;SDS011;1510;51.072;6.678;2024-03-02T12:06:55;4.67;;;1.23;;
3000;SDS011;1510;51.072;6.678;2024-03-02T12:09:24;5.77;;;1.37;;
3000;SDS011;1510;51.072;6.678;2024-03-02T12:12:00;8.50;;;1.50;;
3000;SDS011;1510;51.072;6.678;2024-03-02T12:14:30;5.20;;;1.20;;
3000;SDS011;1510;51.072;6.678;2024-03-02T12:16:57;5.70;;;1.07;;
3000;SDS011;1510;51.072;6.678;2024-03-02T12:19:25;5.83;;;1.90;;
3000;SDS011;1510;51.072;6.678;2024-03-02T12:21:51;5.77;;;1.87;;
3000;SDS011;1510;51.072;6.678;2024-03-02T12:24:18;7.03;;;1.20;;
3000;SDS011;1510;51.072;6.678;2024-03-02T12:26:45;4.93;;;1.40;;
3000;SDS011;1510;51.072;6.678;2024-03-02T12:29:14;4.50;;;1.20;;
3000;SDS011;1510;51.072;6.678;2024-03-02T12:31:41;4.70;;;1.40;;
3000;SDS011;1510;51.072;6.678;2024-03-02T12:34:10;5.77;;;1.40;;
3000;SDS011;1510;51.072;6.678;2024-03-02T12:36:39;4.93;;;1.10;;
3000;SDS011;1510;51.072;6.678;2024-03-02T12:39:07;4.37;;;1.27;;
3000;SDS011;1510;51.072;6.678;2024-03-02T12:41:35;6.67;;;1.53;;
3000;SDS011;1510;51.072;6.678;2024-03-02T12:44:03;4.67;;;1.13;;
3000;SDS011;1510;51.072;6.678;2024-03-02T12:46:31;7.00;;;2.00;;
3000;SDS011;1510;51.072;6.678;2024-03-02T12:48:58;4.97;;;1.70;;
3000;SDS011;1510;51.072;6.678;2024-03-02T12:51:33;5.63;;;1.90;;
3000;SDS011;1510;51.072;6.678;2024-03-02T12:54:01;5.57;;;1.70;;
3000;SDS011;1510;51.072;6.678;2024-03-02T12:56:28;4.70;;;1.47;;
3000;SDS011;1510;51.072;6.678;2024-03-02T12:58:55;7.70;;;1.57;;
3000;SDS011;1510;51.072;6.678;2024-03-02T13:01:22;5.07;;;1.53;;
3000;SDS011;1510;51.072;6.678;2024-03-02T13:03:51;6.47;;;1.40;;
3000;SDS011;1510;51.072;6.678;2024-03-02T13:06:20;6.80;;;1.43;;
3000;SDS011;1510;51.072;6.678;2024-03-02T13:08:47;5.70;;;1.70;;
3000;SDS011;1510;51.072;6.678;2024-03-02T13:11:15;5.00;;;1.40;;
3000;SDS011;1510;51.072;6.678;2024-03-02T13:13:43;7.23;;;1.60;;
3000;SDS011;1510;51.072;6.678;2024-03-02T13:16:10;5.20;;;1.57;;
3000;SDS011;1510;51.072;6.678;2024-03-02T13:18:38;6.27;;;1.60;;
3000;SDS011;1510;51.072;6.678;2024-03-02T13:21:06;4.83;;;1.83;;
3000;SDS011;1510;51.072;6.678;2024-03-02T13:23:33;5.30;;;1.40;;
3000;SDS011;1510;51.072;6.678;2024-03-02T13:26:00;4.50;;;1.40;;
3000;SDS011;1510;51.072;6.678;2024-03-02T13:28:27;5.80;;;1.80;;
3000;SDS011;1510;51.072;6.678;2024-03-02T13:30:54;7.50;;;2.50;;
3000;SDS011;1510;51.072;6.678;2024-03-02T13:33:21;5.20;;;1.47;;
3000;SDS011;1510;51.072;6.678;2024-03-02T13:35:48;6.90;;;1.60;;
3000;SDS011;1510;51.072;6.678;2024-03-02T13:38:17;5.63;;;1.87;;
3000;SDS011;1510;51.072;6.678;2024-03-02T13:40:45;6.17;;;1.70;;
3000;SDS011;1510;51.072;6.678;2024-03-02T13:43:12;5.73;;;1.80;;
3000;SDS011;1510;51.072;6.678;2024-03-02T13:45:40;5.57;;;2.20;;
3000;SDS011;1510;51.072;6.678;2024-03-02T13:48:07;8.87;;;3.17;;
3000;SDS011;1510;51.072;6.678;2024-03-02T13:50:34;5.57;;;1.97;;
3000;SDS011;1510;51.072;6.678;2024-03-02T13:53:01;4.77;;;1.60;;
3000;SDS011;1510;51.072;6.678;2024-03-02T13:55:30;6.00;;;1.53;;
3000;SDS011;1510;51.072;6.678;2024-03-02T13:57:57;4.10;;;1.20;;
3000;SDS011;1510;51.072;6.678;2024-03-02T14:00:25;4.83;;;1.57;;
3000;SDS011;1510;51.072;6.678;2024-03-02T14:02:51;5.40;;;1.40;;
3000;SDS011;1510;51.072;6.678;2024-03-02T14:05:18;5.70;;;1.60;;
3000;SDS011;1510;51.072;6.678;2024-03-02T14:07:45;5.60;;;1.57;;
3000;SDS011;1510;51.072;6.678;2024-03-02T14:10:12;7.13;;;1.60;;
3000;SDS011;1510;51.072;6.678;2024-03-02T14:12:41;7.37;;;1.30;;
3000;SDS011;1510;51.072;6.678;2024-03-02T14:15:08;9.10;;;1.63;;
3000;SDS011;1510;51.072;6.678;2024-03-02T14:17:35;4.70;;;1.50;;
3000;SDS011;1510;51.072;6.678;2024-03-02T14:20:02;4.30;;;1.00;;
3000;SDS011;1510;51.072;6.678;2024-03-02T14:22:30;4.70;;;1.47;;
3000;SDS011;1510;51.072;6.678;2024-03-02T14:24:56;4.77;;;1.50;;
3000;SDS011;1510;51.072;6.678;2024-03-02T14:27:23;4.83;;;1.50;;
3000;SDS011;1510;51.072;6.678;2024-03-02T14:29:51;5.07;;;1.43;;
3000;SDS011;1510;51.072;6.678;2024-03-02T14:32:18;8.93;;;1.87;;
3000;SDS011;1510;51.072;6.678;2024-03-02T14:34:45;4.70;;;1.40;;
3000;SDS011;1510;51.072;6.678;2024-03-02T14:37:12;6.93;;;2.03;;
3000;SDS011;1510;51.072;6.678;2024-03-02T14:39:39;8.93;;;1.90;;
3000;SDS011;1510;51.072;6.678;2024-03-02T14:42:06;5.10;;;1.13;;
3000;SDS011;1510;51.072;6.678;2024-03-02T14:44:33;4.53;;;1.37;;
3000;SDS011;1510;51.072;6.678;2024-03-02T14:47:02;4.23;;;1.27;;
3000;SDS011;1510;51.072;6.678;2024-03-02T14:49:29;4.67;;;1.37;;
3000;SDS011;1510;51.072;6.678;2024-03-02T14:51:58;6.00;;;1.60;;
3000;SDS011;1510;51.072;6.678;2024-03-02T14:54:25;5.37;;;1.10;;
3000;SDS011;1510;51.072;6.678;2024-03-02T14:56:52;3.93;;;1.10;;
3000;SDS011;1510;51.072;6.678;2024-03-02T14:59:19;5.50;;;1.40;;
3000;SDS011;1510;51.072;6.678;2024-03-02T15:01:45;10.50;;;3.23;;
3000;SDS011;1510;51.072;6.678;2024-03-02T15:04:14;6.03;;;1.40;;
3000;SDS011;1510;51.072;6.678;2024-03-02T15:06:44;5.00;;;1.50;;
3000;SDS011;1510;51.072;6.678;2024-03-02T15:09:10;9.80;;;2.10;;
3000;SDS011;1510;51.072;6.678;2024-03-02T15:11:38;5.20;;;1.63;;
3000;SDS011;1510;51.072;6.678;2024-03-02T15:14:05;6.80;;;1.87;;
3000;SDS011;1510;51.072;6.678;2024-03-02T15:16:32;7.40;;;1.43;;
3000;SDS011;1510;51.072;6.678;2024-03-02T15:18:58;8.53;;;1.93;;